Flugplatz Beilngries

Für EDNC sind keine METAR/TAF Berichte vorhanden.
Es werden die Flugwettermeldungen vom Flugplatz Hohenfels Army Air Field in 33 km Entfernung angezeigt.

Bericht für ETIH

vom 30.09. um 21:55 UTC

kein Wind

Sichtweite 10 km oder mehr

aufgelockert bewölkt in 4700 ft

Temperatur 4.7°C

Taupunkt 3.4°C

Luftfeuchtigkeit 91%

Luftdruck 1014 hPa

ETIH 302155Z AUTO 00000KT 9999 SCT047 05/03 A2993 RMK AO2 SLP142 T00470034 401440021 PWINO
Keine Prognose (TAF) verfügbar.
Impressum